Terminal Aerodrome Forecast
Issued by NWS

Home | Current Version | Previous Version | Text Only | Print | Product List | Glossary On
Versions: 1 2 3 4 5 6 7 8 9 10 11 12 13 14 15 16 17
000
FTUS46 KMTR 301700 RRA
TAFSJC
TAF
KSJC 301741Z 3018/3118 03003KT 2SM BR FEW003 OVC005
     FM301900 VRB03KT 3SM BR FEW004 SCT006
     FM302000 31007KT 6SM HZ SKC
     FM310500 VRB03KT P6SM FEW012=

USA.gov is the U.S. government's official web portal to all federal, state and local government web resources and services.